sensor_id;sensor_type;location;lat;lon;timestamp;P1;durP1;ratioP1;P2;durP2;ratioP2
9413;SDS011;4746;35.664;139.738;2023-04-01T00:01:11;19.23;;;14.90;;
9413;SDS011;4746;35.664;139.738;2023-04-01T00:03:41;18.83;;;15.10;;
9413;SDS011;4746;35.664;139.738;2023-04-01T00:06:11;21.00;;;15.73;;
9413;SDS011;4746;35.664;139.738;2023-04-01T00:08:42;18.03;;;14.37;;
9413;SDS011;4746;35.664;139.738;2023-04-01T00:11:10;19.43;;;14.20;;
9413;SDS011;4746;35.664;139.738;2023-04-01T00:13:38;17.03;;;13.30;;
9413;SDS011;4746;35.664;139.738;2023-04-01T00:16:06;15.27;;;12.93;;
9413;SDS011;4746;35.664;139.738;2023-04-01T00:18:35;14.40;;;12.20;;
9413;SDS011;4746;35.664;139.738;2023-04-01T00:21:02;21.10;;;12.23;;
9413;SDS011;4746;35.664;139.738;2023-04-01T00:23:30;14.93;;;11.73;;
9413;SDS011;4746;35.664;139.738;2023-04-01T00:26:02;17.50;;;11.63;;
9413;SDS011;4746;35.664;139.738;2023-04-01T00:28:30;17.60;;;12.10;;
9413;SDS011;4746;35.664;139.738;2023-04-01T00:31:05;13.30;;;11.00;;
9413;SDS011;4746;35.664;139.738;2023-04-01T00:33:34;12.40;;;10.40;;
9413;SDS011;4746;35.664;139.738;2023-04-01T00:36:06;12.73;;;10.83;;
9413;SDS011;4746;35.664;139.738;2023-04-01T00:38:39;16.67;;;10.10;;
9413;SDS011;4746;35.664;139.738;2023-04-01T00:41:09;14.17;;;10.50;;
9413;SDS011;4746;35.664;139.738;2023-04-01T00:43:42;14.03;;;10.07;;
9413;SDS011;4746;35.664;139.738;2023-04-01T00:46:14;14.47;;;10.90;;
9413;SDS011;4746;35.664;139.738;2023-04-01T00:48:44;12.77;;;10.90;;
9413;SDS011;4746;35.664;139.738;2023-04-01T00:51:25;11.87;;;9.87;;
9413;SDS011;4746;35.664;139.738;2023-04-01T00:53:56;13.63;;;10.67;;
9413;SDS011;4746;35.664;139.738;2023-04-01T00:59:35;15.17;;;10.23;;
9413;SDS011;4746;35.664;139.738;2023-04-01T01:02:12;12.03;;;10.00;;
9413;SDS011;4746;35.664;139.738;2023-04-01T01:04:41;12.43;;;10.20;;
9413;SDS011;4746;35.664;139.738;2023-04-01T01:10:01;15.90;;;9.47;;
9413;SDS011;4746;35.664;139.738;2023-04-01T01:15:23;12.53;;;9.90;;
9413;SDS011;4746;35.664;139.738;2023-04-01T01:18:00;15.83;;;11.43;;
9413;SDS011;4746;35.664;139.738;2023-04-01T01:35:46;15.77;;;13.43;;
9413;SDS011;4746;35.664;139.738;2023-04-01T01:38:23;15.77;;;13.13;;
9413;SDS011;4746;35.664;139.738;2023-04-01T01:40:57;17.23;;;13.97;;
9413;SDS011;4746;35.664;139.738;2023-04-01T01:43:30;17.10;;;14.27;;
9413;SDS011;4746;35.664;139.738;2023-04-01T01:46:14;15.23;;;13.57;;
9413;SDS011;4746;35.664;139.738;2023-04-01T01:48:51;17.17;;;14.07;;
9413;SDS011;4746;35.664;139.738;2023-04-01T01:51:21;15.80;;;12.80;;
9413;SDS011;4746;35.664;139.738;2023-04-01T01:53:50;15.93;;;12.23;;
9413;SDS011;4746;35.664;139.738;2023-04-01T01:56:17;13.80;;;11.67;;
9413;SDS011;4746;35.664;139.738;2023-04-01T01:58:54;12.53;;;10.37;;
9413;SDS011;4746;35.664;139.738;2023-04-01T02:01:31;12.67;;;10.57;;
9413;SDS011;4746;35.664;139.738;2023-04-01T02:04:05;13.82;;;10.95;;
9413;SDS011;4746;35.664;139.738;2023-04-01T02:06:37;15.23;;;10.83;;
9413;SDS011;4746;35.664;139.738;2023-04-01T02:09:17;14.23;;;11.33;;
9413;SDS011;4746;35.664;139.738;2023-04-01T02:11:48;14.40;;;11.40;;
9413;SDS011;4746;35.664;139.738;2023-04-01T02:14:59;14.13;;;12.63;;
9413;SDS011;4746;35.664;139.738;2023-04-01T02:17:37;15.47;;;12.27;;
9413;SDS011;4746;35.664;139.738;2023-04-01T02:20:17;16.10;;;11.57;;
9413;SDS011;4746;35.664;139.738;2023-04-01T02:22:51;14.00;;;11.30;;
9413;SDS011;4746;35.664;139.738;2023-04-01T02:25:26;13.05;;;9.75;;
9413;SDS011;4746;35.664;139.738;2023-04-01T02:28:00;15.65;;;10.38;;
9413;SDS011;4746;35.664;139.738;2023-04-01T02:30:32;16.98;;;11.55;;
9413;SDS011;4746;35.664;139.738;2023-04-01T02:33:04;14.73;;;11.02;;
9413;SDS011;4746;35.664;139.738;2023-04-01T02:35:33;18.20;;;11.00;;
9413;SDS011;4746;35.664;139.738;2023-04-01T02:38:03;15.32;;;11.57;;
9413;SDS011;4746;35.664;139.738;2023-04-01T02:40:41;16.25;;;11.60;;
9413;SDS011;4746;35.664;139.738;2023-04-01T02:43:15;15.63;;;10.70;;
9413;SDS011;4746;35.664;139.738;2023-04-01T02:45:47;15.10;;;10.15;;
9413;SDS011;4746;35.664;139.738;2023-04-01T02:48:15;18.33;;;9.77;;
9413;SDS011;4746;35.664;139.738;2023-04-01T02:50:42;13.30;;;9.85;;
9413;SDS011;4746;35.664;139.738;2023-04-01T02:53:10;14.25;;;9.25;;
9413;SDS011;4746;35.664;139.738;2023-04-01T02:55:37;10.70;;;9.05;;
9413;SDS011;4746;35.664;139.738;2023-04-01T02:58:05;11.32;;;8.65;;
9413;SDS011;4746;35.664;139.738;2023-04-01T03:00:33;12.65;;;9.25;;
9413;SDS011;4746;35.664;139.738;2023-04-01T03:03:01;15.20;;;8.32;;
9413;SDS011;4746;35.664;139.738;2023-04-01T03:05:29;10.13;;;8.57;;
9413;SDS011;4746;35.664;139.738;2023-04-01T03:07:57;13.82;;;8.15;;
9413;SDS011;4746;35.664;139.738;2023-04-01T03:10:25;10.00;;;7.97;;
9413;SDS011;4746;35.664;139.738;2023-04-01T03:12:53;11.32;;;9.20;;
9413;SDS011;4746;35.664;139.738;2023-04-01T03:15:20;14.70;;;9.75;;
9413;SDS011;4746;35.664;139.738;2023-04-01T03:17:48;14.10;;;9.77;;
9413;SDS011;4746;35.664;139.738;2023-04-01T03:20:16;13.38;;;9.48;;
9413;SDS011;4746;35.664;139.738;2023-04-01T03:22:44;10.40;;;9.02;;
9413;SDS011;4746;35.664;139.738;2023-04-01T03:25:12;15.35;;;9.90;;
9413;SDS011;4746;35.664;139.738;2023-04-01T03:27:40;14.50;;;10.60;;
9413;SDS011;4746;35.664;139.738;2023-04-01T03:30:08;12.40;;;9.35;;
9413;SDS011;4746;35.664;139.738;2023-04-01T03:32:36;11.57;;;9.30;;
9413;SDS011;4746;35.664;139.738;2023-04-01T03:35:03;10.63;;;9.30;;
9413;SDS011;4746;35.664;139.738;2023-04-01T03:37:31;11.80;;;9.50;;
9413;SDS011;4746;35.664;139.738;2023-04-01T03:39:59;13.57;;;9.02;;
9413;SDS011;4746;35.664;139.738;2023-04-01T03:42:26;14.80;;;9.07;;
9413;SDS011;4746;35.664;139.738;2023-04-01T03:44:56;12.40;;;8.82;;
9413;SDS011;4746;35.664;139.738;2023-04-01T03:47:24;13.20;;;10.93;;
9413;SDS011;4746;35.664;139.738;2023-04-01T03:49:51;15.07;;;11.25;;
9413;SDS011;4746;35.664;139.738;2023-04-01T03:52:20;18.67;;;13.73;;
9413;SDS011;4746;35.664;139.738;2023-04-01T03:54:48;16.13;;;13.38;;
9413;SDS011;4746;35.664;139.738;2023-04-01T03:57:15;17.10;;;12.98;;
9413;SDS011;4746;35.664;139.738;2023-04-01T03:59:43;17.20;;;12.55;;
9413;SDS011;4746;35.664;139.738;2023-04-01T04:02:10;15.43;;;13.90;;
9413;SDS011;4746;35.664;139.738;2023-04-01T04:04:38;15.98;;;14.02;;
9413;SDS011;4746;35.664;139.738;2023-04-01T04:07:06;18.35;;;14.18;;
9413;SDS011;4746;35.664;139.738;2023-04-01T04:09:34;16.33;;;12.95;;
9413;SDS011;4746;35.664;139.738;2023-04-01T04:12:01;16.92;;;12.30;;
9413;SDS011;4746;35.664;139.738;2023-04-01T04:14:31;16.08;;;12.18;;
9413;SDS011;4746;35.664;139.738;2023-04-01T04:16:58;17.23;;;11.27;;
9413;SDS011;4746;35.664;139.738;2023-04-01T04:19:26;17.85;;;11.68;;
9413;SDS011;4746;35.664;139.738;2023-04-01T04:22:01;14.93;;;10.57;;
9413;SDS011;4746;35.664;139.738;2023-04-01T04:24:28;14.77;;;11.75;;
9413;SDS011;4746;35.664;139.738;2023-04-01T04:26:56;15.18;;;10.57;;
9413;SDS011;4746;35.664;139.738;2023-04-01T04:29:23;16.58;;;10.65;;
9413;SDS011;4746;35.664;139.738;2023-04-01T04:31:51;13.85;;;10.57;;
9413;SDS011;4746;35.664;139.738;2023-04-01T04:34:19;13.32;;;10.05;;
9413;SDS011;4746;35.664;139.738;2023-04-01T04:36:47;14.07;;;9.40;;
9413;SDS011;4746;35.664;139.738;2023-04-01T04:39:17;16.38;;;10.27;;
9413;SDS011;4746;35.664;139.738;2023-04-01T04:41:45;11.60;;;9.18;;
9413;SDS011;4746;35.664;139.738;2023-04-01T04:44:13;16.83;;;10.15;;
9413;SDS011;4746;35.664;139.738;2023-04-01T04:46:41;11.88;;;9.63;;
9413;SDS011;4746;35.664;139.738;2023-04-01T04:49:08;13.98;;;10.27;;
9413;SDS011;4746;35.664;139.738;2023-04-01T04:51:36;15.98;;;11.13;;
9413;SDS011;4746;35.664;139.738;2023-04-01T04:54:04;13.15;;;9.73;;
9413;SDS011;4746;35.664;139.738;2023-04-01T04:56:32;16.23;;;10.63;;
9413;SDS011;4746;35.664;139.738;2023-04-01T04:59:01;18.05;;;10.95;;
9413;SDS011;4746;35.664;139.738;2023-04-01T05:01:29;12.07;;;9.50;;
9413;SDS011;4746;35.664;139.738;2023-04-01T05:03:56;20.73;;;10.05;;
9413;SDS011;4746;35.664;139.738;2023-04-01T05:06:24;15.70;;;9.80;;
9413;SDS011;4746;35.664;139.738;2023-04-01T05:08:55;15.52;;;10.00;;
9413;SDS011;4746;35.664;139.738;2023-04-01T05:11:23;22.48;;;10.52;;
9413;SDS011;4746;35.664;139.738;2023-04-01T05:13:51;16.13;;;10.18;;
9413;SDS011;4746;35.664;139.738;2023-04-01T05:16:20;20.42;;;11.23;;
9413;SDS011;4746;35.664;139.738;2023-04-01T05:18:47;16.33;;;10.57;;
9413;SDS011;4746;35.664;139.738;2023-04-01T05:21:15;14.82;;;10.68;;
9413;SDS011;4746;35.664;139.738;2023-04-01T05:23:43;21.58;;;11.25;;
9413;SDS011;4746;35.664;139.738;2023-04-01T05:26:12;16.83;;;10.23;;
9413;SDS011;4746;35.664;139.738;2023-04-01T05:28:41;18.67;;;9.95;;
9413;SDS011;4746;35.664;139.738;2023-04-01T05:31:08;16.02;;;10.73;;
9413;SDS011;4746;35.664;139.738;2023-04-01T05:33:36;20.00;;;10.27;;
9413;SDS011;4746;35.664;139.738;2023-04-01T05:36:07;19.50;;;10.50;;
9413;SDS011;4746;35.664;139.738;2023-04-01T05:38:42;21.05;;;10.18;;
9413;SDS011;4746;35.664;139.738;2023-04-01T05:41:11;18.38;;;9.38;;
9413;SDS011;4746;35.664;139.738;2023-04-01T05:43:41;18.60;;;10.15;;
9413;SDS011;4746;35.664;139.738;2023-04-01T05:46:09;15.23;;;8.68;;
9413;SDS011;4746;35.664;139.738;2023-04-01T05:48:36;15.35;;;8.77;;
9413;SDS011;4746;35.664;139.738;2023-04-01T05:51:04;14.05;;;8.50;;
9413;SDS011;4746;35.664;139.738;2023-04-01T05:53:31;16.83;;;9.00;;
9413;SDS011;4746;35.664;139.738;2023-04-01T05:56:02;12.23;;;8.45;;
9413;SDS011;4746;35.664;139.738;2023-04-01T05:58:30;16.88;;;8.77;;
9413;SDS011;4746;35.664;139.738;2023-04-01T06:01:02;17.27;;;9.23;;
9413;SDS011;4746;35.664;139.738;2023-04-01T06:03:33;15.63;;;8.68;;
9413;SDS011;4746;35.664;139.738;2023-04-01T06:06:01;13.98;;;9.63;;
9413;SDS011;4746;35.664;139.738;2023-04-01T06:08:30;14.68;;;9.23;;
9413;SDS011;4746;35.664;139.738;2023-04-01T06:13:42;15.93;;;8.63;;
9413;SDS011;4746;35.664;139.738;2023-04-01T06:16:48;12.05;;;8.32;;
9413;SDS011;4746;35.664;139.738;2023-04-01T06:22:24;13.50;;;8.18;;
9413;SDS011;4746;35.664;139.738;2023-04-01T06:25:25;11.93;;;8.55;;
9413;SDS011;4746;35.664;139.738;2023-04-01T06:37:13;12.80;;;8.15;;
9413;SDS011;4746;35.664;139.738;2023-04-01T06:40:12;14.98;;;7.13;;
9413;SDS011;4746;35.664;139.738;2023-04-01T06:46:52;12.77;;;7.82;;
9413;SDS011;4746;35.664;139.738;2023-04-01T06:55:17;16.33;;;8.02;;
9413;SDS011;4746;35.664;139.738;2023-04-01T06:58:15;12.25;;;7.00;;
9413;SDS011;4746;35.664;139.738;2023-04-01T07:00:58;14.98;;;7.18;;
9413;SDS011;4746;35.664;139.738;2023-04-01T07:03:36;15.93;;;7.45;;
9413;SDS011;4746;35.664;139.738;2023-04-01T07:06:31;8.18;;;7.20;;
9413;SDS011;4746;35.664;139.738;2023-04-01T07:09:11;15.77;;;7.63;;
9413;SDS011;4746;35.664;139.738;2023-04-01T07:11:46;12.55;;;8.07;;
9413;SDS011;4746;35.664;139.738;2023-04-01T07:17:08;15.48;;;7.47;;
9413;SDS011;4746;35.664;139.738;2023-04-01T07:20:19;11.27;;;7.20;;
9413;SDS011;4746;35.664;139.738;2023-04-01T07:23:22;10.60;;;7.18;;
9413;SDS011;4746;35.664;139.738;2023-04-01T07:26:17;12.98;;;7.70;;
9413;SDS011;4746;35.664;139.738;2023-04-01T07:28:50;15.95;;;7.65;;
9413;SDS011;4746;35.664;139.738;2023-04-01T07:34:03;12.07;;;7.13;;
9413;SDS011;4746;35.664;139.738;2023-04-01T07:39:35;14.15;;;8.35;;
9413;SDS011;4746;35.664;139.738;2023-04-01T07:42:41;7.85;;;7.15;;
9413;SDS011;4746;35.664;139.738;2023-04-01T07:45:42;14.60;;;8.48;;
9413;SDS011;4746;35.664;139.738;2023-04-01T07:57:20;10.43;;;8.15;;
9413;SDS011;4746;35.664;139.738;2023-04-01T08:00:30;13.57;;;7.82;;
9413;SDS011;4746;35.664;139.738;2023-04-01T08:03:36;14.40;;;8.15;;
9413;SDS011;4746;35.664;139.738;2023-04-01T08:12:10;10.63;;;9.23;;
9413;SDS011;4746;35.664;139.738;2023-04-01T08:15:10;14.57;;;9.07;;
9413;SDS011;4746;35.664;139.738;2023-04-01T08:18:50;12.38;;;8.90;;
9413;SDS011;4746;35.664;139.738;2023-04-01T08:21:28;12.48;;;8.95;;
9413;SDS011;4746;35.664;139.738;2023-04-01T08:24:27;13.73;;;9.55;;
9413;SDS011;4746;35.664;139.738;2023-04-01T08:27:09;16.08;;;10.20;;
9413;SDS011;4746;35.664;139.738;2023-04-01T08:30:25;17.05;;;9.98;;
9413;SDS011;4746;35.664;139.738;2023-04-01T08:32:55;14.30;;;10.40;;
9413;SDS011;4746;35.664;139.738;2023-04-01T08:38:50;18.08;;;10.57;;
9413;SDS011;4746;35.664;139.738;2023-04-01T08:41:33;16.05;;;10.63;;
9413;SDS011;4746;35.664;139.738;2023-04-01T08:50:34;16.73;;;11.57;;
9413;SDS011;4746;35.664;139.738;2023-04-01T08:53:33;18.23;;;10.40;;
9413;SDS011;4746;35.664;139.738;2023-04-01T09:07:16;12.73;;;8.93;;
9413;SDS011;4746;35.664;139.738;2023-04-01T09:25:15;16.10;;;9.23;;
9413;SDS011;4746;35.664;139.738;2023-04-01T09:28:18;14.83;;;9.30;;
9413;SDS011;4746;35.664;139.738;2023-04-01T09:40:14;19.63;;;8.20;;
9413;SDS011;4746;35.664;139.738;2023-04-01T09:55:39;10.93;;;7.70;;
9413;SDS011;4746;35.664;139.738;2023-04-01T10:13:24;8.00;;;6.90;;
9413;SDS011;4746;35.664;139.738;2023-04-01T10:16:09;11.47;;;7.10;;
9413;SDS011;4746;35.664;139.738;2023-04-01T10:25:18;15.67;;;7.73;;
9413;SDS011;4746;35.664;139.738;2023-04-01T10:28:34;8.63;;;7.53;;
9413;SDS011;4746;35.664;139.738;2023-04-01T10:38:01;10.67;;;7.73;;
9413;SDS011;4746;35.664;139.738;2023-04-01T10:47:06;13.93;;;8.90;;
9413;SDS011;4746;35.664;139.738;2023-04-01T10:53:06;12.60;;;8.47;;
9413;SDS011;4746;35.664;139.738;2023-04-01T10:58:52;15.80;;;9.47;;
9413;SDS011;4746;35.664;139.738;2023-04-01T11:23:18;13.53;;;9.07;;
9413;SDS011;4746;35.664;139.738;2023-04-01T11:26:05;15.53;;;9.00;;
9413;SDS011;4746;35.664;139.738;2023-04-01T11:28:54;11.00;;;7.90;;
9413;SDS011;4746;35.664;139.738;2023-04-01T11:37:23;11.63;;;8.07;;
9413;SDS011;4746;35.664;139.738;2023-04-01T11:43:47;14.17;;;7.50;;
9413;SDS011;4746;35.664;139.738;2023-04-01T11:59:15;10.47;;;8.63;;
9413;SDS011;4746;35.664;139.738;2023-04-01T12:05:51;10.70;;;7.93;;
9413;SDS011;4746;35.664;139.738;2023-04-01T12:08:51;10.40;;;7.63;;
9413;SDS011;4746;35.664;139.738;2023-04-01T12:17:53;9.87;;;6.97;;
9413;SDS011;4746;35.664;139.738;2023-04-01T12:20:36;10.73;;;7.60;;
9413;SDS011;4746;35.664;139.738;2023-04-01T12:23:18;11.80;;;7.60;;
9413;SDS011;4746;35.664;139.738;2023-04-01T12:29:37;10.77;;;6.93;;
9413;SDS011;4746;35.664;139.738;2023-04-01T12:47:53;8.53;;;6.03;;
9413;SDS011;4746;35.664;139.738;2023-04-01T13:02:50;6.33;;;5.27;;
9413;SDS011;4746;35.664;139.738;2023-04-01T13:06:07;9.30;;;5.07;;
9413;SDS011;4746;35.664;139.738;2023-04-01T13:09:13;7.47;;;5.67;;
9413;SDS011;4746;35.664;139.738;2023-04-01T13:18:13;5.47;;;4.87;;
9413;SDS011;4746;35.664;139.738;2023-04-01T13:32:28;6.13;;;4.80;;
9413;SDS011;4746;35.664;139.738;2023-04-01T13:38:39;8.93;;;5.23;;
9413;SDS011;4746;35.664;139.738;2023-04-01T14:00:39;5.13;;;4.73;;
9413;SDS011;4746;35.664;139.738;2023-04-01T14:09:33;7.30;;;5.20;;
9413;SDS011;4746;35.664;139.738;2023-04-01T14:25:01;6.90;;;4.37;;
9413;SDS011;4746;35.664;139.738;2023-04-01T14:54:04;6.90;;;4.97;;
9413;SDS011;4746;35.664;139.738;2023-04-01T15:00:00;9.20;;;5.93;;
9413;SDS011;4746;35.664;139.738;2023-04-01T15:18:15;8.23;;;5.40;;
9413;SDS011;4746;35.664;139.738;2023-04-01T15:21:18;8.53;;;5.23;;
9413;SDS011;4746;35.664;139.738;2023-04-01T15:24:15;7.57;;;5.40;;
9413;SDS011;4746;35.664;139.738;2023-04-01T15:36:03;6.43;;;5.33;;
9413;SDS011;4746;35.664;139.738;2023-04-01T15:39:28;7.40;;;5.57;;
9413;SDS011;4746;35.664;139.738;2023-04-01T15:41:48;7.40;;;5.70;;
9413;SDS011;4746;35.664;139.738;2023-04-01T15:44:55;7.00;;;5.63;;
9413;SDS011;4746;35.664;139.738;2023-04-01T15:48:13;6.90;;;4.90;;
9413;SDS011;4746;35.664;139.738;2023-04-01T15:57:10;7.73;;;5.87;;
9413;SDS011;4746;35.664;139.738;2023-04-01T16:00:40;8.10;;;6.43;;
9413;SDS011;4746;35.664;139.738;2023-04-01T16:03:33;8.97;;;6.20;;
9413;SDS011;4746;35.664;139.738;2023-04-01T16:06:23;8.43;;;7.40;;
9413;SDS011;4746;35.664;139.738;2023-04-01T16:09:38;7.67;;;6.90;;
9413;SDS011;4746;35.664;139.738;2023-04-01T16:21:14;9.00;;;6.80;;
9413;SDS011;4746;35.664;139.738;2023-04-01T16:24:16;9.00;;;7.30;;
9413;SDS011;4746;35.664;139.738;2023-04-01T16:27:01;8.23;;;7.37;;
9413;SDS011;4746;35.664;139.738;2023-04-01T16:30:00;8.93;;;7.60;;
9413;SDS011;4746;35.664;139.738;2023-04-01T16:35:53;7.50;;;6.70;;
9413;SDS011;4746;35.664;139.738;2023-04-01T16:38:39;8.23;;;7.23;;
9413;SDS011;4746;35.664;139.738;2023-04-01T16:41:36;7.57;;;6.73;;
9413;SDS011;4746;35.664;139.738;2023-04-01T16:44:28;9.53;;;7.73;;
9413;SDS011;4746;35.664;139.738;2023-04-01T16:47:05;8.80;;;7.80;;
9413;SDS011;4746;35.664;139.738;2023-04-01T16:49:42;8.27;;;7.50;;
9413;SDS011;4746;35.664;139.738;2023-04-01T16:59:06;8.07;;;6.30;;
9413;SDS011;4746;35.664;139.738;2023-04-01T17:13:27;10.93;;;6.27;;
9413;SDS011;4746;35.664;139.738;2023-04-01T17:22:34;7.13;;;6.47;;
9413;SDS011;4746;35.664;139.738;2023-04-01T17:25:17;8.53;;;6.43;;
9413;SDS011;4746;35.664;139.738;2023-04-01T17:32:21;7.10;;;6.30;;
9413;SDS011;4746;35.664;139.738;2023-04-01T18:21:13;7.30;;;6.60;;
9413;SDS011;4746;35.664;139.738;2023-04-01T18:23:56;6.70;;;6.00;;
9413;SDS011;4746;35.664;139.738;2023-04-01T18:26:59;8.27;;;6.00;;
9413;SDS011;4746;35.664;139.738;2023-04-01T18:30:02;9.57;;;6.17;;
9413;SDS011;4746;35.664;139.738;2023-04-01T18:32:50;8.47;;;6.20;;
9413;SDS011;4746;35.664;139.738;2023-04-01T18:35:44;7.03;;;6.33;;
9413;SDS011;4746;35.664;139.738;2023-04-01T18:38:33;9.33;;;6.27;;
9413;SDS011;4746;35.664;139.738;2023-04-01T18:52:40;7.30;;;5.50;;
9413;SDS011;4746;35.664;139.738;2023-04-01T18:58:17;8.87;;;6.53;;
9413;SDS011;4746;35.664;139.738;2023-04-01T19:09:30;6.30;;;5.70;;
9413;SDS011;4746;35.664;139.738;2023-04-01T19:12:19;7.80;;;5.87;;
9413;SDS011;4746;35.664;139.738;2023-04-01T19:17:47;7.30;;;6.00;;
9413;SDS011;4746;35.664;139.738;2023-04-01T19:20:47;7.20;;;6.00;;
9413;SDS011;4746;35.664;139.738;2023-04-01T19:37:40;7.00;;;6.30;;
9413;SDS011;4746;35.664;139.738;2023-04-01T19:40:47;7.17;;;6.47;;
9413;SDS011;4746;35.664;139.738;2023-04-01T19:44:02;7.20;;;6.50;;
9413;SDS011;4746;35.664;139.738;2023-04-01T19:52:55;10.87;;;7.30;;
9413;SDS011;4746;35.664;139.738;2023-04-01T20:04:26;8.60;;;7.43;;
9413;SDS011;4746;35.664;139.738;2023-04-01T20:10:13;7.53;;;6.73;;
9413;SDS011;4746;35.664;139.738;2023-04-01T20:15:46;10.63;;;7.10;;
9413;SDS011;4746;35.664;139.738;2023-04-01T20:18:36;7.33;;;6.73;;
9413;SDS011;4746;35.664;139.738;2023-04-01T20:24:17;8.13;;;7.37;;
9413;SDS011;4746;35.664;139.738;2023-04-01T20:43:07;7.03;;;6.30;;
9413;SDS011;4746;35.664;139.738;2023-04-01T20:45:42;7.37;;;6.67;;
9413;SDS011;4746;35.664;139.738;2023-04-01T20:51:34;7.10;;;6.27;;
9413;SDS011;4746;35.664;139.738;2023-04-01T20:57:01;8.43;;;6.77;;
9413;SDS011;4746;35.664;139.738;2023-04-01T21:05:53;7.87;;;6.97;;
9413;SDS011;4746;35.664;139.738;2023-04-01T21:17:01;8.63;;;7.83;;
9413;SDS011;4746;35.664;139.738;2023-04-01T21:29:39;9.67;;;7.63;;
9413;SDS011;4746;35.664;139.738;2023-04-01T21:32:14;9.53;;;7.57;;
9413;SDS011;4746;35.664;139.738;2023-04-01T21:35:08;8.73;;;7.63;;
9413;SDS011;4746;35.664;139.738;2023-04-01T21:41:21;8.57;;;7.30;;
9413;SDS011;4746;35.664;139.738;2023-04-01T21:44:19;8.23;;;7.30;;
9413;SDS011;4746;35.664;139.738;2023-04-01T21:59:28;7.97;;;7.20;;
9413;SDS011;4746;35.664;139.738;2023-04-01T22:16:58;13.07;;;8.33;;
9413;SDS011;4746;35.664;139.738;2023-04-01T22:29:14;10.13;;;8.33;;
9413;SDS011;4746;35.664;139.738;2023-04-01T22:32:15;10.27;;;8.07;;
9413;SDS011;4746;35.664;139.738;2023-04-01T22:34:57;9.23;;;8.40;;
9413;SDS011;4746;35.664;139.738;2023-04-01T22:37:46;8.73;;;7.70;;
9413;SDS011;4746;35.664;139.738;2023-04-01T22:43:42;10.57;;;8.33;;
9413;SDS011;4746;35.664;139.738;2023-04-01T22:49:29;8.90;;;8.00;;
9413;SDS011;4746;35.664;139.738;2023-04-01T22:52:27;8.60;;;7.83;;
9413;SDS011;4746;35.664;139.738;2023-04-01T22:55:28;9.20;;;8.33;;
9413;SDS011;4746;35.664;139.738;2023-04-01T22:58:00;11.03;;;8.40;;
9413;SDS011;4746;35.664;139.738;2023-04-01T23:00:45;8.80;;;7.57;;
9413;SDS011;4746;35.664;139.738;2023-04-01T23:03:47;8.63;;;7.90;;
9413;SDS011;4746;35.664;139.738;2023-04-01T23:06:38;11.53;;;7.13;;
9413;SDS011;4746;35.664;139.738;2023-04-01T23:12:15;9.13;;;8.27;;
9413;SDS011;4746;35.664;139.738;2023-04-01T23:17:19;10.27;;;8.63;;
9413;SDS011;4746;35.664;139.738;2023-04-01T23:20:21;10.07;;;9.03;;
9413;SDS011;4746;35.664;139.738;2023-04-01T23:26:18;10.33;;;8.03;;
9413;SDS011;4746;35.664;139.738;2023-04-01T23:28:59;8.90;;;7.50;;
9413;SDS011;4746;35.664;139.738;2023-04-01T23:36:40;9.23;;;8.07;;
9413;SDS011;4746;35.664;139.738;2023-04-01T23:42:00;8.70;;;7.67;;
9413;SDS011;4746;35.664;139.738;2023-04-01T23:44:40;8.83;;;7.47;;
9413;SDS011;4746;35.664;139.738;2023-04-01T23:47:12;10.47;;;7.93;;
9413;SDS011;4746;35.664;139.738;2023-04-01T23:49:49;8.50;;;7.57;;
9413;SDS011;4746;35.664;139.738;2023-04-01T23:52:30;9.67;;;7.53;;
9413;SDS011;4746;35.664;139.738;2023-04-01T23:55:13;9.73;;;7.60;;
